createdAt,value
2022-12-13T00:01:22.616Z,100018.00
2022-12-13T00:03:49.496Z,99999.97
2022-12-13T00:06:16.164Z,100000.25
2022-12-13T00:08:42.847Z,99998.59
2022-12-13T00:11:13.407Z,100005.53
2022-12-13T00:13:41.888Z,100005.09
2022-12-13T00:16:12.548Z,100002.97
2022-12-13T00:18:39.824Z,100006.63
2022-12-13T00:21:13.012Z,99994.78
2022-12-13T00:23:39.695Z,99991.69
2022-12-13T00:26:09.666Z,99985.94
2022-12-13T00:28:36.326Z,99991.88
2022-12-13T00:31:43.165Z,99974.66
2022-12-13T00:33:53.381Z,99980.94
2022-12-13T00:36:20.313Z,99977.84
2022-12-13T00:38:47.099Z,99975.56
2022-12-13T00:41:15.160Z,99976.38
2022-12-13T00:43:42.553Z,99979.50
2022-12-13T00:46:18.701Z,99969.53
2022-12-13T00:48:50.004Z,99974.91
2022-12-13T00:51:17.475Z,99978.47
2022-12-13T00:53:44.187Z,99978.28
2022-12-13T00:56:13.228Z,99973.00
2022-12-13T00:58:40.689Z,99970.56
2022-12-13T01:01:10.647Z,99969.63
2022-12-13T01:03:37.510Z,99966.09
2022-12-13T01:06:15.997Z,99968.81
2022-12-13T01:08:44.380Z,99968.91
2022-12-13T01:11:11.757Z,99969.38
2022-12-13T01:13:39.093Z,99969.81
2022-12-13T01:16:08.777Z,99969.25
2022-12-13T01:18:36.115Z,99972.00
2022-12-13T01:21:06.955Z,99971.25
2022-12-13T01:23:34.337Z,99982.75
2022-12-13T01:26:05.369Z,99980.19
2022-12-13T01:28:32.542Z,99983.44
2022-12-13T01:31:02.833Z,99982.19
2022-12-13T01:33:30.446Z,99978.25
2022-12-13T01:36:00.790Z,99976.97
2022-12-13T01:38:27.438Z,99980.34
2022-12-13T01:40:59.015Z,99976.28
2022-12-13T01:43:46.940Z,99970.25
2022-12-13T01:46:15.855Z,99966.34
2022-12-13T01:48:49.896Z,99968.19
2022-12-13T01:51:19.178Z,99970.03
2022-12-13T01:53:48.730Z,99973.50
2022-12-13T01:56:22.478Z,99963.50
2022-12-13T01:58:52.323Z,99968.63
2022-12-13T02:01:20.166Z,99963.25
2022-12-13T02:03:46.822Z,99961.25
2022-12-13T02:06:21.874Z,99959.22
2022-12-13T02:08:49.452Z,99957.16
2022-12-13T02:11:16.254Z,99957.03
2022-12-13T02:13:43.067Z,99953.50
2022-12-13T02:16:22.985Z,99955.56
2022-12-13T02:19:08.590Z,99954.88
2022-12-13T02:21:42.270Z,99954.16
2022-12-13T02:24:26.867Z,99952.63
2022-12-13T02:27:30.342Z,99955.53
2022-12-13T02:30:19.545Z,99961.22
2022-12-13T02:33:06.860Z,99953.13
2022-12-13T02:35:42.804Z,99956.94
2022-12-13T02:38:33.430Z,99955.13
2022-12-13T02:41:15.484Z,99952.47
2022-12-13T02:43:52.705Z,99945.44
2022-12-13T02:46:32.716Z,99949.22
2022-12-13T02:49:00.567Z,99942.69
2022-12-13T02:51:28.913Z,99944.91
2022-12-13T02:53:55.573Z,99952.47
2022-12-13T02:56:22.164Z,99946.97
2022-12-13T02:58:52.331Z,99949.50
2022-12-13T03:01:47.798Z,99948.28
2022-12-13T03:05:18.341Z,99951.44
2022-12-13T03:08:12.414Z,99948.97
2022-12-13T03:10:52.080Z,99933.81
2022-12-13T03:13:36.809Z,99935.19
2022-12-13T03:16:15.484Z,99930.91
2022-12-13T03:18:52.731Z,99928.31
2022-12-13T03:21:22.189Z,99932.69
2022-12-13T03:23:48.855Z,99918.84
2022-12-13T03:26:20.883Z,99927.66
2022-12-13T03:28:48.107Z,99925.75
2022-12-13T03:31:17.089Z,99928.44
2022-12-13T03:33:43.836Z,99929.28
2022-12-13T03:36:11.831Z,99928.44
2022-12-13T03:38:39.926Z,99927.91
2022-12-13T03:41:11.473Z,99920.63
2022-12-13T03:43:39.745Z,99918.72
2022-12-13T03:46:07.808Z,99929.78
2022-12-13T03:48:34.670Z,99926.63
2022-12-13T03:51:02.726Z,99923.69
2022-12-13T03:53:33.813Z,99918.72
2022-12-13T03:56:04.534Z,99923.13
2022-12-13T03:58:36.077Z,99923.72
2022-12-13T04:01:09.908Z,99925.88
2022-12-13T04:03:40.003Z,99925.75
2022-12-13T04:06:07.523Z,99915.56
2022-12-13T04:08:35.374Z,99914.59
2022-12-13T04:11:24.879Z,99916.41
2022-12-13T04:13:53.666Z,99916.16
2022-12-13T04:16:20.635Z,99915.81
2022-12-13T04:18:47.593Z,99913.47
2022-12-13T04:21:15.396Z,99912.03
2022-12-13T04:23:42.181Z,99905.63
2022-12-13T04:26:08.889Z,99918.97
2022-12-13T04:28:35.840Z,99915.03
2022-12-13T04:31:02.772Z,99910.22
2022-12-13T04:33:32.470Z,99912.53
2022-12-13T04:35:59.531Z,99909.81
2022-12-13T04:38:26.157Z,99905.47
2022-12-13T04:40:53.852Z,99914.91
2022-12-13T04:43:20.499Z,99911.88
2022-12-13T04:45:47.290Z,99910.06
2022-12-13T04:48:30.776Z,99911.88
2022-12-13T04:51:01.323Z,99910.06
2022-12-13T04:53:31.542Z,99911.50
2022-12-13T04:55:58.396Z,99905.19
2022-12-13T04:58:25.386Z,99909.19
2022-12-13T05:00:52.127Z,99907.88
2022-12-13T05:03:18.723Z,99911.56
2022-12-13T05:05:45.532Z,99907.88
2022-12-13T05:08:12.316Z,99905.50
2022-12-13T05:10:39.075Z,99901.09
2022-12-13T05:13:07.205Z,99901.69
2022-12-13T05:15:34.772Z,99900.75
2022-12-13T05:18:10.113Z,99911.81
2022-12-13T05:20:39.692Z,99912.94
2022-12-13T05:23:06.573Z,99919.19
2022-12-13T05:25:33.329Z,99917.41
2022-12-13T05:27:59.960Z,99914.63
2022-12-13T05:30:26.583Z,99908.34
2022-12-13T05:32:53.221Z,99906.00
2022-12-13T05:35:22.669Z,99895.44
2022-12-13T05:37:53.753Z,99897.78
2022-12-13T05:40:27.150Z,99897.53
2022-12-13T05:43:01.195Z,99898.25
2022-12-13T05:45:32.937Z,99899.81
2022-12-13T05:48:00.118Z,99897.19
2022-12-13T05:50:26.732Z,99887.94
2022-12-13T05:52:53.463Z,99883.41
2022-12-13T05:55:20.325Z,99879.63
2022-12-13T05:57:50.092Z,99876.81
2022-12-13T06:00:29.783Z,99872.22
2022-12-13T06:03:00.954Z,99880.47
2022-12-13T06:05:31.873Z,99877.09
2022-12-13T06:07:59.377Z,99888.28
2022-12-13T06:10:34.091Z,99884.94
2022-12-13T06:13:22.009Z,99887.19
2022-12-13T06:16:01.289Z,99882.31
2022-12-13T06:18:34.651Z,99882.16
2022-12-13T06:21:04.477Z,99891.47
2022-12-13T06:23:32.019Z,99901.63
2022-12-13T06:25:58.733Z,99901.28
2022-12-13T06:28:25.556Z,99893.19
2022-12-13T06:30:52.412Z,99899.88
2022-12-13T06:33:23.621Z,99895.63
2022-12-13T06:35:52.535Z,99899.88
2022-12-13T06:38:22.108Z,99898.47
2022-12-13T06:41:10.316Z,99893.34
2022-12-13T06:43:37.193Z,99894.38
2022-12-13T06:46:05.980Z,99893.53
2022-12-13T06:48:33.370Z,99895.97
2022-12-13T06:51:05.042Z,99900.63
2022-12-13T06:53:31.840Z,99896.19
2022-12-13T06:56:03.960Z,99897.91
2022-12-13T06:58:30.672Z,99897.09
2022-12-13T07:01:15.063Z,99903.00
2022-12-13T07:03:51.561Z,99897.00
2022-12-13T07:06:20.241Z,99887.16
2022-12-13T07:08:53.166Z,99894.47
2022-12-13T07:11:22.899Z,99904.19
2022-12-13T07:13:50.779Z,99907.38
2022-12-13T07:16:18.150Z,99910.25
2022-12-13T07:18:47.753Z,99911.88
2022-12-13T07:21:21.651Z,99914.41
2022-12-13T07:23:55.115Z,99923.59
2022-12-13T07:26:22.744Z,99925.66
2022-12-13T07:28:54.644Z,99922.03
2022-12-13T07:31:22.875Z,99920.03
2022-12-13T07:33:50.493Z,99931.84
2022-12-13T07:36:22.663Z,99935.41
2022-12-13T07:38:56.826Z,99944.59
2022-12-13T07:41:25.124Z,99944.13
2022-12-13T07:43:55.841Z,99937.00
2022-12-13T07:46:31.966Z,99938.59
2022-12-13T07:49:04.710Z,99948.75
2022-12-13T07:51:34.872Z,99950.75
2022-12-13T07:54:07.061Z,99946.94
2022-12-13T07:56:35.321Z,99949.47
2022-12-13T07:59:02.431Z,99946.22
2022-12-13T08:01:34.371Z,99946.31
2022-12-13T08:04:02.734Z,99931.88
2022-12-13T08:06:34.084Z,99924.13
2022-12-13T08:09:01.034Z,99924.03
2022-12-13T08:11:27.688Z,99931.03
2022-12-13T08:13:55.123Z,99939.22
2022-12-13T08:16:27.260Z,99953.00
2022-12-13T08:19:02.104Z,99962.84
2022-12-13T08:21:53.856Z,99957.69
2022-12-13T08:24:24.075Z,99950.00
2022-12-13T08:26:50.718Z,99941.63
2022-12-13T08:29:22.900Z,99953.31
2022-12-13T08:32:09.069Z,99953.00
2022-12-13T08:34:36.046Z,99949.13
2022-12-13T08:37:04.377Z,99947.69
2022-12-13T08:39:37.497Z,99942.53
2022-12-13T08:42:15.144Z,99947.09
2022-12-13T08:44:45.846Z,99952.25
2022-12-13T08:47:24.460Z,99956.53
2022-12-13T08:50:02.802Z,99959.91
2022-12-13T08:52:39.003Z,99952.78
2022-12-13T08:55:12.940Z,99955.06
2022-12-13T08:57:41.795Z,99950.78
2022-12-13T09:00:13.099Z,99946.28
2022-12-13T09:02:39.995Z,99952.59
2022-12-13T09:05:09.209Z,99951.19
2022-12-13T09:07:36.624Z,99945.97
2022-12-13T09:10:25.425Z,99940.44
2022-12-13T09:13:01.698Z,99944.56
2022-12-13T09:15:34.237Z,99942.84
2022-12-13T09:18:04.892Z,99952.06
2022-12-13T09:20:40.775Z,99954.75
2022-12-13T09:23:13.940Z,99950.75
2022-12-13T09:26:04.945Z,99959.16
2022-12-13T09:28:35.185Z,99958.44
2022-12-13T09:31:13.896Z,99959.47
2022-12-13T09:33:41.965Z,99949.97
2022-12-13T09:36:12.464Z,99961.59
2022-12-13T09:38:39.188Z,99953.91
2022-12-13T09:41:28.731Z,99959.19
2022-12-13T09:44:01.527Z,99953.47
2022-12-13T09:46:34.966Z,99954.00
2022-12-13T09:49:35.088Z,99951.91
2022-12-13T09:52:11.378Z,99953.53
2022-12-13T09:54:47.803Z,99957.31
2022-12-13T09:57:31.267Z,99960.22
2022-12-13T10:00:05.533Z,99963.28
2022-12-13T10:02:44.372Z,99953.09
2022-12-13T10:05:33.647Z,99950.47
2022-12-13T10:08:05.979Z,99953.69
2022-12-13T10:10:32.644Z,99949.81
2022-12-13T10:13:07.715Z,99944.22
2022-12-13T10:15:40.593Z,99940.19
2022-12-13T10:18:12.682Z,99930.00
2022-12-13T10:20:41.160Z,99927.19
2022-12-13T10:23:33.374Z,99925.75
2022-12-13T10:26:03.157Z,99923.94
2022-12-13T10:28:33.394Z,99914.63
2022-12-13T10:31:01.359Z,99917.00
2022-12-13T10:33:38.070Z,99915.97
2022-12-13T10:36:16.031Z,99932.25
2022-12-13T10:38:46.062Z,99930.97
2022-12-13T10:41:36.121Z,99925.97
2022-12-13T10:44:11.806Z,99918.50
2022-12-13T10:47:16.912Z,99912.41
2022-12-13T10:49:59.254Z,99902.59
2022-12-13T10:52:31.918Z,99906.41
2022-12-13T10:55:23.571Z,99905.53
2022-12-13T10:57:53.837Z,99900.53
2022-12-13T11:00:53.017Z,99898.09
2022-12-13T11:03:32.651Z,99893.81
2022-12-13T11:06:20.197Z,99896.69
2022-12-13T11:08:46.896Z,99886.31
2022-12-13T11:11:17.538Z,99886.06
2022-12-13T11:13:52.891Z,99882.59
2022-12-13T11:16:33.715Z,99883.78
2022-12-13T11:19:04.848Z,99884.75
2022-12-13T11:21:36.685Z,99867.63
2022-12-13T11:24:08.549Z,99867.00
2022-12-13T11:26:39.433Z,99870.72
2022-12-13T11:29:19.059Z,99873.16
2022-12-13T11:32:07.176Z,99871.50
2022-12-13T11:34:40.681Z,99865.00
2022-12-13T11:37:31.928Z,99851.59
2022-12-13T11:40:15.595Z,99843.41
2022-12-13T11:42:55.734Z,99841.91
2022-12-13T11:45:28.454Z,99838.13
2022-12-13T11:48:14.435Z,99846.75
2022-12-13T11:50:46.264Z,99844.94
2022-12-13T11:53:19.006Z,99853.03
2022-12-13T11:56:06.476Z,99842.09
2022-12-13T12:01:38.112Z,99832.63
2022-12-13T12:04:17.567Z,99822.47
2022-12-13T12:07:12.318Z,99824.22
2022-12-13T12:09:53.791Z,99821.44
2022-12-13T12:12:30.054Z,99814.63
2022-12-13T12:15:15.834Z,99833.19
2022-12-13T12:17:43.776Z,99824.97
2022-12-13T12:20:23.237Z,99822.38
2022-12-13T12:23:04.478Z,99828.72
2022-12-13T12:25:47.272Z,99825.25
2022-12-13T12:28:51.052Z,99809.91
2022-12-13T12:31:51.339Z,99804.94
2022-12-13T12:34:55.809Z,99799.25
2022-12-13T12:37:37.652Z,99805.00
2022-12-13T12:41:07.322Z,99814.41
2022-12-13T12:43:36.065Z,99805.78
2022-12-13T12:46:21.645Z,99804.34
2022-12-13T12:49:22.033Z,99802.81
2022-12-13T12:52:04.597Z,99803.94
2022-12-13T12:54:50.133Z,99811.25
2022-12-13T12:57:33.585Z,99808.25
2022-12-13T13:00:19.729Z,99814.03
2022-12-13T13:03:22.007Z,99808.19
2022-12-13T13:06:04.737Z,99801.31
2022-12-13T13:08:40.702Z,99805.78
2022-12-13T13:11:24.597Z,99791.44
2022-12-13T13:14:22.347Z,99793.69
2022-12-13T13:16:49.129Z,99796.94
2022-12-13T13:19:16.465Z,99796.44
2022-12-13T13:21:55.136Z,99794.88
2022-12-13T13:24:31.258Z,99792.47
2022-12-13T13:27:19.252Z,99787.88
2022-12-13T13:29:46.270Z,99785.00
2022-12-13T13:32:28.349Z,99791.56
2022-12-13T13:35:29.047Z,99776.06
2022-12-13T13:37:57.174Z,99787.75
2022-12-13T13:40:38.387Z,99789.91
2022-12-13T13:43:11.022Z,99786.88
2022-12-13T13:45:49.921Z,99788.59
2022-12-13T13:48:54.241Z,99793.41
2022-12-13T13:51:41.467Z,99797.41
2022-12-13T13:54:44.620Z,99801.31
2022-12-13T13:58:08.248Z,99798.31
2022-12-13T14:00:27.956Z,99792.75
2022-12-13T14:03:22.469Z,99790.72
2022-12-13T14:06:25.259Z,99788.28
2022-12-13T14:09:13.468Z,99787.09
2022-12-13T14:12:18.450Z,99784.03
2022-12-13T14:15:31.861Z,99782.38
2022-12-13T14:18:23.681Z,99802.06
2022-12-13T14:21:06.631Z,99803.66
2022-12-13T14:23:39.329Z,99795.75
2022-12-13T14:26:23.877Z,99796.00
2022-12-13T14:28:55.234Z,99789.09
2022-12-13T14:31:39.513Z,99786.00
2022-12-13T14:34:07.870Z,99788.88
2022-12-13T14:36:36.558Z,99793.66
2022-12-13T14:39:24.761Z,99783.81
2022-12-13T14:42:00.229Z,99788.81
2022-12-13T14:44:32.226Z,99790.41
2022-12-13T14:47:03.270Z,99787.78
2022-12-13T14:49:33.896Z,99804.69
2022-12-13T14:52:26.749Z,99790.13
2022-12-13T14:55:04.275Z,99779.75
2022-12-13T14:57:33.522Z,99778.22
2022-12-13T15:00:02.584Z,99768.06
2022-12-13T15:02:32.881Z,99766.13
2022-12-13T15:05:01.759Z,99759.84
2022-12-13T15:07:32.089Z,99758.97
2022-12-13T15:10:02.512Z,99756.22
2022-12-13T15:12:32.220Z,99750.03
2022-12-13T15:15:07.317Z,99752.44
2022-12-13T15:17:40.048Z,99739.66
2022-12-13T15:20:30.808Z,99739.44
2022-12-13T15:23:40.252Z,99739.97
2022-12-13T15:26:28.254Z,99743.97
2022-12-13T15:28:59.926Z,99739.16
2022-12-13T15:31:27.932Z,99733.78
2022-12-13T15:34:01.005Z,99725.38
2022-12-13T15:36:29.013Z,99716.34
2022-12-13T15:38:55.625Z,99705.97
2022-12-13T15:41:29.558Z,99718.28
2022-12-13T15:44:05.244Z,99710.47
2022-12-13T15:46:37.684Z,99705.19
2022-12-13T15:49:06.164Z,99707.44
2022-12-13T15:51:33.150Z,99705.78
2022-12-13T15:54:09.002Z,99712.41
2022-12-13T15:57:11.269Z,99708.88
2022-12-13T15:59:38.017Z,99703.75
2022-12-13T16:02:17.079Z,99701.00
2022-12-13T16:04:44.759Z,99690.38
2022-12-13T16:07:26.117Z,99690.63
2022-12-13T16:09:54.593Z,99688.38
2022-12-13T16:12:32.594Z,99682.81
2022-12-13T16:15:28.560Z,99693.09
2022-12-13T16:18:14.532Z,99683.22
2022-12-13T16:20:43.817Z,99674.38
2022-12-13T16:23:10.522Z,99669.47
2022-12-13T16:25:54.494Z,99668.31
2022-12-13T16:28:21.574Z,99673.88
2022-12-13T16:30:53.085Z,99675.78
2022-12-13T16:33:26.788Z,99678.22
2022-12-13T16:35:55.395Z,99673.97
2022-12-13T16:38:26.606Z,99676.50
2022-12-13T16:40:55.972Z,99679.31
2022-12-13T16:43:32.865Z,99672.97
2022-12-13T16:47:14.425Z,99684.69
2022-12-13T16:48:51.865Z,99677.59
2022-12-13T16:51:19.407Z,99687.63
2022-12-13T16:53:46.261Z,99689.72
2022-12-13T16:56:16.282Z,99687.00
2022-12-13T16:58:49.379Z,99686.56
2022-12-13T17:01:20.107Z,99686.94
2022-12-13T17:03:47.150Z,99678.94
2022-12-13T17:06:16.331Z,99681.31
2022-12-13T17:08:42.991Z,99680.88
2022-12-13T17:11:14.639Z,99678.34
2022-12-13T17:13:46.366Z,99673.78
2022-12-13T17:16:13.170Z,99668.09
2022-12-13T17:18:42.844Z,99666.47
2022-12-13T17:21:10.964Z,99662.56
2022-12-13T17:23:37.770Z,99663.72
2022-12-13T17:26:09.258Z,99657.16
2022-12-13T17:28:35.970Z,99664.50
2022-12-13T17:31:08.109Z,99665.41
2022-12-13T17:33:36.300Z,99664.22
2022-12-13T17:36:08.420Z,99657.97
2022-12-13T17:38:35.864Z,99659.91
2022-12-13T17:41:02.958Z,99654.53
2022-12-13T17:43:34.652Z,99663.28
2022-12-13T17:46:05.883Z,99668.59
2022-12-13T17:48:39.587Z,99660.50
2022-12-13T17:51:08.809Z,99654.75
2022-12-13T17:53:36.970Z,99650.31
2022-12-13T17:56:06.469Z,99648.97
2022-12-13T17:58:33.562Z,99646.38
2022-12-13T18:01:10.434Z,99648.50
2022-12-13T18:03:38.293Z,99640.00
2022-12-13T18:06:06.988Z,99642.72
2022-12-13T18:08:36.527Z,99643.28
2022-12-13T18:13:54.756Z,99636.16
2022-12-13T18:16:22.864Z,99637.53
2022-12-13T18:18:55.064Z,99643.97
2022-12-13T18:21:23.630Z,99635.09
2022-12-13T18:23:55.031Z,99629.41
2022-12-13T18:26:24.510Z,99628.56
2022-12-13T18:28:51.764Z,99606.75
2022-12-13T18:31:21.993Z,99595.22
2022-12-13T18:33:51.216Z,99590.25
2022-12-13T18:36:19.258Z,99595.81
2022-12-13T18:38:46.488Z,99604.03
2022-12-13T18:41:15.781Z,99595.53
2022-12-13T18:43:43.552Z,99583.75
2022-12-13T18:46:12.446Z,99572.56
2022-12-13T18:48:39.276Z,99587.59
2022-12-13T18:51:08.603Z,99582.06
2022-12-13T18:53:35.604Z,99596.69
2022-12-13T18:56:04.829Z,99613.16
2022-12-13T18:58:32.546Z,99611.34
2022-12-13T19:00:59.728Z,99613.84
2022-12-13T19:03:27.264Z,99598.91
2022-12-13T19:05:56.585Z,99606.84
2022-12-13T19:08:26.812Z,99592.88
2022-12-13T19:10:57.616Z,99585.53
2022-12-13T19:13:25.885Z,99590.09
2022-12-13T19:15:56.503Z,99595.22
2022-12-13T19:18:23.208Z,99595.34
2022-12-13T19:20:52.239Z,99597.66
2022-12-13T19:23:19.604Z,99597.63
2022-12-13T19:25:48.616Z,99597.13
2022-12-13T19:28:15.725Z,99593.63
2022-12-13T19:30:47.571Z,99590.16
2022-12-13T19:33:14.917Z,99573.13
2022-12-13T19:35:43.066Z,99573.06
2022-12-13T19:38:12.245Z,99572.84
2022-12-13T19:40:40.772Z,99575.31
2022-12-13T19:43:09.031Z,99574.72
2022-12-13T19:45:35.966Z,99562.28
2022-12-13T19:48:03.253Z,99557.38
2022-12-13T19:50:30.404Z,99546.38
2022-12-13T19:52:57.318Z,99546.72
2022-12-13T19:55:24.043Z,99546.78
2022-12-13T19:57:50.674Z,99546.94
2022-12-13T20:00:17.361Z,99543.28
2022-12-13T20:02:44.403Z,99545.34
2022-12-13T20:05:11.303Z,99539.56
2022-12-13T20:07:38.411Z,99537.69
2022-12-13T20:10:06.115Z,99540.38
2022-12-13T20:12:38.835Z,99543.16
2022-12-13T20:15:08.375Z,99533.97
2022-12-13T20:17:35.800Z,99533.16
2022-12-13T20:20:03.872Z,99531.53
2022-12-13T20:22:32.451Z,99533.00
2022-12-13T20:25:00.538Z,99536.41
2022-12-13T20:27:27.570Z,99530.66
2022-12-13T20:29:54.181Z,99516.47
2022-12-13T20:32:21.258Z,99516.41
2022-12-13T20:34:53.076Z,99511.28
2022-12-13T20:37:23.794Z,99502.19
2022-12-13T20:39:51.527Z,99503.19
2022-12-13T20:42:18.173Z,99502.38
2022-12-13T20:44:45.511Z,99493.84
2022-12-13T20:47:12.234Z,99502.63
2022-12-13T20:49:38.888Z,99498.81
2022-12-13T20:52:05.750Z,99484.94
2022-12-13T20:54:32.335Z,99486.34
2022-12-13T20:56:58.977Z,99485.16
2022-12-13T20:59:25.578Z,99484.97
2022-12-13T21:01:52.631Z,99479.00
2022-12-13T21:04:19.594Z,99482.84
2022-12-13T21:06:46.264Z,99468.81
2022-12-13T21:09:12.916Z,99463.38
2022-12-13T21:11:45.244Z,99470.25
2022-12-13T21:14:25.353Z,99469.00
2022-12-13T21:16:57.623Z,99476.19
2022-12-13T21:19:39.384Z,99480.09
2022-12-13T21:22:09.170Z,99474.75
2022-12-13T21:24:35.841Z,99465.22
2022-12-13T21:27:02.472Z,99456.69
2022-12-13T21:29:29.107Z,99450.47
2022-12-13T21:31:56.046Z,99444.47
2022-12-13T21:34:23.320Z,99449.75
2022-12-13T21:36:53.219Z,99452.19
2022-12-13T21:39:22.780Z,99445.28
2022-12-13T21:41:50.428Z,99438.59
2022-12-13T21:44:18.064Z,99440.56
2022-12-13T21:47:11.440Z,99441.22
2022-12-13T21:49:31.701Z,99436.94
2022-12-13T21:51:58.447Z,99429.63
2022-12-13T21:54:25.132Z,99419.41
2022-12-13T21:57:10.416Z,99416.56
2022-12-13T21:59:37.086Z,99404.59
2022-12-13T22:02:15.470Z,99394.81
2022-12-13T22:04:49.467Z,99389.50
2022-12-13T22:07:20.499Z,99376.50
2022-12-13T22:09:48.210Z,99368.56
2022-12-13T22:12:23.157Z,99368.56
2022-12-13T22:14:50.422Z,99362.03
2022-12-13T22:17:24.991Z,99364.69
2022-12-13T22:19:54.721Z,99368.75
2022-12-13T22:22:23.056Z,99355.94
2022-12-13T22:24:53.530Z,99348.81
2022-12-13T22:27:25.440Z,99338.03
2022-12-13T22:29:54.061Z,99333.16
2022-12-13T22:32:20.851Z,99341.31
2022-12-13T22:34:47.771Z,99339.25
2022-12-13T22:37:15.748Z,99322.19
2022-12-13T22:39:42.828Z,99322.19
2022-12-13T22:42:09.902Z,99326.47
2022-12-13T22:44:36.697Z,99316.28
2022-12-13T22:47:03.443Z,99318.50
2022-12-13T22:49:30.541Z,99325.97
2022-12-13T22:51:57.329Z,99333.69
2022-12-13T22:54:23.918Z,99329.25
2022-12-13T22:56:51.148Z,99325.19
2022-12-13T22:59:17.790Z,99326.44
2022-12-13T23:01:47.367Z,99319.50
2022-12-13T23:04:15.178Z,99328.06
2022-12-13T23:06:42.200Z,99327.03
2022-12-13T23:09:12.121Z,99341.50
2022-12-13T23:11:57.984Z,99340.78
2022-12-13T23:14:30.802Z,99334.50
2022-12-13T23:16:58.327Z,99337.19
2022-12-13T23:19:50.865Z,99319.94
2022-12-13T23:22:12.282Z,99321.53
2022-12-13T23:24:38.878Z,99324.38
2022-12-13T23:27:06.271Z,99326.00
2022-12-13T23:29:33.576Z,99316.81
2022-12-13T23:32:00.252Z,99318.50
2022-12-13T23:34:27.400Z,99315.38
2022-12-13T23:36:54.229Z,99310.09
2022-12-13T23:39:21.102Z,99305.41
2022-12-13T23:41:47.837Z,99313.59
2022-12-13T23:44:14.781Z,99301.63
2022-12-13T23:46:41.683Z,99300.97
2022-12-13T23:49:14.954Z,99313.19
2022-12-13T23:51:41.778Z,99311.06
2022-12-13T23:54:09.740Z,99316.00
2022-12-13T23:56:36.317Z,99318.25
2022-12-13T23:59:03.181Z,99300.56
